Ambler, Pennsylvania
Current Conditions -  °F | °C
As of 8:35 AM on Friday 24 Oct 2014 (Local Time) from KLOM Reporting Station
Overcast Overcast  
Wind Chill: 57°   Ceiling: 3400
Heat Index: 57°   Visibility: 10mi
Dew Point: 45°   Wind: 3mph
Humidity: 63%   Direction: 310°NW
Pressure: 29.85"   Gusts: NA
Location:  40.16°N, 75.22°W
Report Text: KLOM 241235Z AUTO 31003KT 10SM OVC034 14/07 A2985 RMK AO1
Loading
Personal Weather Stations






























Interactive Weather Map
Tropical Storm Tracking
New forecast layout! Learn more

10-Day Weather Forecast

Advertisements
Track Severe Weather on mobile